sensor_id;sensor_type;location;lat;lon;timestamp;temperature;humidity
10294;DHT22;5192;50.328;7.610;2023-03-31T00:00:52;10.90;54.40
10294;DHT22;5192;50.328;7.610;2023-03-31T00:03:23;10.90;55.20
10294;DHT22;5192;50.328;7.610;2023-03-31T00:05:57;10.80;58.90
10294;DHT22;5192;50.328;7.610;2023-03-31T00:08:26;10.70;60.70
10294;DHT22;5192;50.328;7.610;2023-03-31T00:10:58;10.70;63.00
10294;DHT22;5192;50.328;7.610;2023-03-31T00:13:30;10.60;63.40
10294;DHT22;5192;50.328;7.610;2023-03-31T00:15:58;10.50;64.00
10294;DHT22;5192;50.328;7.610;2023-03-31T00:18:25;10.60;63.60
10294;DHT22;5192;50.328;7.610;2023-03-31T00:20:53;10.50;63.30
10294;DHT22;5192;50.328;7.610;2023-03-31T00:23:19;10.50;63.30
10294;DHT22;5192;50.328;7.610;2023-03-31T00:25:55;10.50;64.30
10294;DHT22;5192;50.328;7.610;2023-03-31T00:28:22;10.50;66.20
10294;DHT22;5192;50.328;7.610;2023-03-31T00:30:50;10.50;66.90
10294;DHT22;5192;50.328;7.610;2023-03-31T00:33:19;10.40;65.90
10294;DHT22;5192;50.328;7.610;2023-03-31T00:35:51;10.40;65.90
10294;DHT22;5192;50.328;7.610;2023-03-31T00:38:19;10.40;65.80
10294;DHT22;5192;50.328;7.610;2023-03-31T00:40:47;10.40;65.00
10294;DHT22;5192;50.328;7.610;2023-03-31T00:43:33;10.40;65.50
10294;DHT22;5192;50.328;7.610;2023-03-31T00:46:32;10.40;65.50
10294;DHT22;5192;50.328;7.610;2023-03-31T00:49:00;10.40;67.30
10294;DHT22;5192;50.328;7.610;2023-03-31T00:51:34;10.30;67.90
10294;DHT22;5192;50.328;7.610;2023-03-31T00:54:04;10.30;67.60
10294;DHT22;5192;50.328;7.610;2023-03-31T00:56:37;10.30;67.70
10294;DHT22;5192;50.328;7.610;2023-03-31T00:59:08;10.30;67.10
10294;DHT22;5192;50.328;7.610;2023-03-31T01:01:43;10.30;66.10
10294;DHT22;5192;50.328;7.610;2023-03-31T01:04:13;10.30;65.90
10294;DHT22;5192;50.328;7.610;2023-03-31T01:06:51;10.40;66.50
10294;DHT22;5192;50.328;7.610;2023-03-31T01:09:24;10.40;67.20
10294;DHT22;5192;50.328;7.610;2023-03-31T01:11:51;10.40;66.20
10294;DHT22;5192;50.328;7.610;2023-03-31T01:14:17;10.60;65.30
10294;DHT22;5192;50.328;7.610;2023-03-31T01:16:44;10.40;65.10
10294;DHT22;5192;50.328;7.610;2023-03-31T01:19:24;10.50;64.90
10294;DHT22;5192;50.328;7.610;2023-03-31T01:27:54;10.60;63.80
10294;DHT22;5192;50.328;7.610;2023-03-31T01:30:55;10.60;59.60
10294;DHT22;5192;50.328;7.610;2023-03-31T01:48:19;10.80;45.60
10294;DHT22;5192;50.328;7.610;2023-03-31T01:54:23;10.80;45.00
10294;DHT22;5192;50.328;7.610;2023-03-31T01:59:57;10.80;45.60
10294;DHT22;5192;50.328;7.610;2023-03-31T02:03:07;10.80;45.40
10294;DHT22;5192;50.328;7.610;2023-03-31T02:05:50;10.80;46.20
10294;DHT22;5192;50.328;7.610;2023-03-31T02:08:46;10.80;46.80
10294;DHT22;5192;50.328;7.610;2023-03-31T02:11:16;10.80;48.00
10294;DHT22;5192;50.328;7.610;2023-03-31T02:13:48;10.80;48.00
10294;DHT22;5192;50.328;7.610;2023-03-31T02:16:23;10.80;47.70
10294;DHT22;5192;50.328;7.610;2023-03-31T02:18:55;10.80;48.40
10294;DHT22;5192;50.328;7.610;2023-03-31T02:21:37;10.80;48.90
10294;DHT22;5192;50.328;7.610;2023-03-31T02:24:08;11.00;47.20
10294;DHT22;5192;50.328;7.610;2023-03-31T02:29:39;10.80;45.80
10294;DHT22;5192;50.328;7.610;2023-03-31T02:32:40;10.80;46.90
10294;DHT22;5192;50.328;7.610;2023-03-31T02:35:18;10.80;47.10
10294;DHT22;5192;50.328;7.610;2023-03-31T02:37:47;10.80;48.20
10294;DHT22;5192;50.328;7.610;2023-03-31T02:40:21;10.80;47.90
10294;DHT22;5192;50.328;7.610;2023-03-31T02:42:57;10.80;47.40
10294;DHT22;5192;50.328;7.610;2023-03-31T02:45:43;10.80;48.60
10294;DHT22;5192;50.328;7.610;2023-03-31T02:48:25;10.80;50.40
10294;DHT22;5192;50.328;7.610;2023-03-31T02:57:00;10.70;50.80
10294;DHT22;5192;50.328;7.610;2023-03-31T03:17:34;10.60;47.70
10294;DHT22;5192;50.328;7.610;2023-03-31T03:20:07;10.60;47.50
10294;DHT22;5192;50.328;7.610;2023-03-31T03:22:38;10.60;48.40
10294;DHT22;5192;50.328;7.610;2023-03-31T03:25:05;10.60;49.00
10294;DHT22;5192;50.328;7.610;2023-03-31T03:27:37;10.60;50.00
10294;DHT22;5192;50.328;7.610;2023-03-31T03:30:05;10.60;49.60
10294;DHT22;5192;50.328;7.610;2023-03-31T03:32:34;10.60;49.10
10294;DHT22;5192;50.328;7.610;2023-03-31T03:35:02;10.60;49.70
10294;DHT22;5192;50.328;7.610;2023-03-31T03:37:30;10.60;48.30
10294;DHT22;5192;50.328;7.610;2023-03-31T03:39:58;10.60;46.90
10294;DHT22;5192;50.328;7.610;2023-03-31T03:42:25;10.60;45.70
10294;DHT22;5192;50.328;7.610;2023-03-31T03:44:52;10.60;43.10
10294;DHT22;5192;50.328;7.610;2023-03-31T03:47:19;10.60;43.60
10294;DHT22;5192;50.328;7.610;2023-03-31T03:49:44;10.60;43.00
10294;DHT22;5192;50.328;7.610;2023-03-31T03:52:11;10.80;42.50
10294;DHT22;5192;50.328;7.610;2023-03-31T03:54:38;10.60;43.30
10294;DHT22;5192;50.328;7.610;2023-03-31T03:57:05;10.60;43.70
10294;DHT22;5192;50.328;7.610;2023-03-31T03:59:32;10.60;43.20
10294;DHT22;5192;50.328;7.610;2023-03-31T04:01:59;10.60;43.30
10294;DHT22;5192;50.328;7.610;2023-03-31T04:04:26;10.60;42.80
10294;DHT22;5192;50.328;7.610;2023-03-31T04:06:53;10.60;42.10
10294;DHT22;5192;50.328;7.610;2023-03-31T04:09:19;10.60;41.80
10294;DHT22;5192;50.328;7.610;2023-03-31T04:11:47;10.60;41.60
10294;DHT22;5192;50.328;7.610;2023-03-31T04:14:14;10.60;40.20
10294;DHT22;5192;50.328;7.610;2023-03-31T04:16:41;10.50;40.50
10294;DHT22;5192;50.328;7.610;2023-03-31T04:19:08;10.60;39.70
10294;DHT22;5192;50.328;7.610;2023-03-31T04:21:38;10.60;38.70
10294;DHT22;5192;50.328;7.610;2023-03-31T04:24:16;10.60;39.40
10294;DHT22;5192;50.328;7.610;2023-03-31T04:26:48;10.50;38.50
10294;DHT22;5192;50.328;7.610;2023-03-31T04:29:15;10.50;40.50
10294;DHT22;5192;50.328;7.610;2023-03-31T04:31:42;10.50;44.20
10294;DHT22;5192;50.328;7.610;2023-03-31T04:34:13;10.50;46.10
10294;DHT22;5192;50.328;7.610;2023-03-31T04:36:46;10.40;49.20
10294;DHT22;5192;50.328;7.610;2023-03-31T04:39:16;10.40;51.60
10294;DHT22;5192;50.328;7.610;2023-03-31T04:41:43;10.30;54.10
10294;DHT22;5192;50.328;7.610;2023-03-31T04:44:10;10.20;56.90
10294;DHT22;5192;50.328;7.610;2023-03-31T04:46:38;10.10;58.00
10294;DHT22;5192;50.328;7.610;2023-03-31T04:49:06;10.10;57.50
10294;DHT22;5192;50.328;7.610;2023-03-31T04:51:32;10.00;58.50
10294;DHT22;5192;50.328;7.610;2023-03-31T04:53:59;10.00;60.60
10294;DHT22;5192;50.328;7.610;2023-03-31T04:56:29;9.90;61.70
10294;DHT22;5192;50.328;7.610;2023-03-31T04:58:56;9.90;63.40
10294;DHT22;5192;50.328;7.610;2023-03-31T05:01:23;10.00;64.60
10294;DHT22;5192;50.328;7.610;2023-03-31T05:03:50;9.90;63.40
10294;DHT22;5192;50.328;7.610;2023-03-31T05:06:17;9.80;63.20
10294;DHT22;5192;50.328;7.610;2023-03-31T05:08:45;9.80;64.70
10294;DHT22;5192;50.328;7.610;2023-03-31T05:11:12;9.80;63.90
10294;DHT22;5192;50.328;7.610;2023-03-31T05:13:40;9.80;64.80
10294;DHT22;5192;50.328;7.610;2023-03-31T05:16:12;9.80;66.60
10294;DHT22;5192;50.328;7.610;2023-03-31T05:18:41;9.80;67.50
10294;DHT22;5192;50.328;7.610;2023-03-31T05:21:19;9.80;68.70
10294;DHT22;5192;50.328;7.610;2023-03-31T05:23:50;9.70;69.70
10294;DHT22;5192;50.328;7.610;2023-03-31T05:26:17;9.70;70.70
10294;DHT22;5192;50.328;7.610;2023-03-31T05:28:44;9.70;72.20
10294;DHT22;5192;50.328;7.610;2023-03-31T05:31:11;9.60;73.60
10294;DHT22;5192;50.328;7.610;2023-03-31T05:33:38;9.60;74.70
10294;DHT22;5192;50.328;7.610;2023-03-31T05:36:10;9.60;75.40
10294;DHT22;5192;50.328;7.610;2023-03-31T05:38:37;9.50;76.70
10294;DHT22;5192;50.328;7.610;2023-03-31T05:41:04;9.50;77.70
10294;DHT22;5192;50.328;7.610;2023-03-31T05:43:37;9.50;78.10
10294;DHT22;5192;50.328;7.610;2023-03-31T05:46:06;9.50;79.40
10294;DHT22;5192;50.328;7.610;2023-03-31T05:48:34;9.50;80.00
10294;DHT22;5192;50.328;7.610;2023-03-31T05:51:03;9.40;80.80
10294;DHT22;5192;50.328;7.610;2023-03-31T05:53:30;9.40;80.10
10294;DHT22;5192;50.328;7.610;2023-03-31T05:55:59;9.40;79.60
10294;DHT22;5192;50.328;7.610;2023-03-31T05:58:27;9.40;80.10
10294;DHT22;5192;50.328;7.610;2023-03-31T06:01:21;9.40;80.00
10294;DHT22;5192;50.328;7.610;2023-03-31T06:03:51;9.40;81.30
10294;DHT22;5192;50.328;7.610;2023-03-31T06:06:18;9.40;81.70
10294;DHT22;5192;50.328;7.610;2023-03-31T06:08:46;9.30;82.10
10294;DHT22;5192;50.328;7.610;2023-03-31T06:11:19;9.30;82.50
10294;DHT22;5192;50.328;7.610;2023-03-31T06:13:48;9.30;82.20
10294;DHT22;5192;50.328;7.610;2023-03-31T06:16:16;9.30;82.20
10294;DHT22;5192;50.328;7.610;2023-03-31T06:18:44;9.30;82.90
10294;DHT22;5192;50.328;7.610;2023-03-31T06:21:14;9.30;83.10
10294;DHT22;5192;50.328;7.610;2023-03-31T06:23:41;9.30;82.30
10294;DHT22;5192;50.328;7.610;2023-03-31T06:26:18;9.20;81.70
10294;DHT22;5192;50.328;7.610;2023-03-31T06:28:45;9.30;81.70
10294;DHT22;5192;50.328;7.610;2023-03-31T06:31:14;9.20;82.20
10294;DHT22;5192;50.328;7.610;2023-03-31T06:33:44;9.20;82.30
10294;DHT22;5192;50.328;7.610;2023-03-31T06:36:15;9.20;80.80
10294;DHT22;5192;50.328;7.610;2023-03-31T06:38:45;9.20;81.00
10294;DHT22;5192;50.328;7.610;2023-03-31T06:41:13;9.20;79.30
10294;DHT22;5192;50.328;7.610;2023-03-31T06:43:49;9.20;79.30
10294;DHT22;5192;50.328;7.610;2023-03-31T06:46:16;9.20;79.40
10294;DHT22;5192;50.328;7.610;2023-03-31T06:48:43;9.30;78.90
10294;DHT22;5192;50.328;7.610;2023-03-31T06:51:11;9.30;77.40
10294;DHT22;5192;50.328;7.610;2023-03-31T06:53:39;9.30;77.70
10294;DHT22;5192;50.328;7.610;2023-03-31T06:56:05;9.30;75.80
10294;DHT22;5192;50.328;7.610;2023-03-31T06:58:33;9.30;76.10
10294;DHT22;5192;50.328;7.610;2023-03-31T07:01:03;9.40;75.90
10294;DHT22;5192;50.328;7.610;2023-03-31T07:03:32;9.40;76.20
10294;DHT22;5192;50.328;7.610;2023-03-31T07:05:59;9.50;75.90
10294;DHT22;5192;50.328;7.610;2023-03-31T07:08:28;9.50;74.10
10294;DHT22;5192;50.328;7.610;2023-03-31T07:10:57;9.60;71.70
10294;DHT22;5192;50.328;7.610;2023-03-31T07:13:26;9.60;68.40
10294;DHT22;5192;50.328;7.610;2023-03-31T07:15:54;9.70;70.90
10294;DHT22;5192;50.328;7.610;2023-03-31T07:18:22;9.70;69.10
10294;DHT22;5192;50.328;7.610;2023-03-31T07:20:53;9.90;70.90
10294;DHT22;5192;50.328;7.610;2023-03-31T07:23:23;9.80;67.50
10294;DHT22;5192;50.328;7.610;2023-03-31T07:25:49;9.80;67.70
10294;DHT22;5192;50.328;7.610;2023-03-31T07:28:18;9.80;67.90
10294;DHT22;5192;50.328;7.610;2023-03-31T07:30:46;9.90;66.20
10294;DHT22;5192;50.328;7.610;2023-03-31T07:33:14;9.90;65.80
10294;DHT22;5192;50.328;7.610;2023-03-31T07:35:42;10.00;64.50
10294;DHT22;5192;50.328;7.610;2023-03-31T07:38:13;10.10;61.60
10294;DHT22;5192;50.328;7.610;2023-03-31T07:40:42;10.10;54.80
10294;DHT22;5192;50.328;7.610;2023-03-31T07:43:09;10.30;56.70
10294;DHT22;5192;50.328;7.610;2023-03-31T07:45:39;10.30;55.60
10294;DHT22;5192;50.328;7.610;2023-03-31T07:48:06;10.40;53.80
10294;DHT22;5192;50.328;7.610;2023-03-31T07:50:33;10.50;56.10
10294;DHT22;5192;50.328;7.610;2023-03-31T07:53:01;10.60;56.80
10294;DHT22;5192;50.328;7.610;2023-03-31T07:55:29;10.60;54.60
10294;DHT22;5192;50.328;7.610;2023-03-31T07:57:56;10.60;52.80
10294;DHT22;5192;50.328;7.610;2023-03-31T08:00:22;10.70;51.00
10294;DHT22;5192;50.328;7.610;2023-03-31T08:02:49;10.70;50.80
10294;DHT22;5192;50.328;7.610;2023-03-31T08:05:17;10.80;55.30
10294;DHT22;5192;50.328;7.610;2023-03-31T08:07:48;10.80;55.20
10294;DHT22;5192;50.328;7.610;2023-03-31T08:10:26;10.80;50.90
10294;DHT22;5192;50.328;7.610;2023-03-31T08:12:53;10.90;50.00
10294;DHT22;5192;50.328;7.610;2023-03-31T08:15:23;11.00;45.50
10294;DHT22;5192;50.328;7.610;2023-03-31T08:17:52;11.20;47.40
10294;DHT22;5192;50.328;7.610;2023-03-31T08:20:21;11.40;44.80
10294;DHT22;5192;50.328;7.610;2023-03-31T08:22:48;11.60;47.70
10294;DHT22;5192;50.328;7.610;2023-03-31T08:25:15;11.60;39.80
10294;DHT22;5192;50.328;7.610;2023-03-31T08:27:42;11.80;43.20
10294;DHT22;5192;50.328;7.610;2023-03-31T08:30:10;11.90;38.40
10294;DHT22;5192;50.328;7.610;2023-03-31T08:32:37;12.00;39.10
10294;DHT22;5192;50.328;7.610;2023-03-31T08:35:04;12.00;39.10
10294;DHT22;5192;50.328;7.610;2023-03-31T08:37:36;12.00;36.50
10294;DHT22;5192;50.328;7.610;2023-03-31T08:40:05;12.00;36.60
10294;DHT22;5192;50.328;7.610;2023-03-31T08:43:07;12.00;37.90
10294;DHT22;5192;50.328;7.610;2023-03-31T08:45:40;12.00;43.90
10294;DHT22;5192;50.328;7.610;2023-03-31T08:48:30;11.90;51.00
10294;DHT22;5192;50.328;7.610;2023-03-31T08:51:08;11.80;45.50
10294;DHT22;5192;50.328;7.610;2023-03-31T08:53:42;11.80;47.20
10294;DHT22;5192;50.328;7.610;2023-03-31T08:56:14;11.70;43.70
10294;DHT22;5192;50.328;7.610;2023-03-31T08:58:44;11.70;44.90
10294;DHT22;5192;50.328;7.610;2023-03-31T09:07:58;11.30;61.30
10294;DHT22;5192;50.328;7.610;2023-03-31T09:13:56;11.20;61.10
10294;DHT22;5192;50.328;7.610;2023-03-31T09:17:06;11.10;55.20
10294;DHT22;5192;50.328;7.610;2023-03-31T09:20:16;11.10;56.80
10294;DHT22;5192;50.328;7.610;2023-03-31T09:22:51;11.10;50.50
10294;DHT22;5192;50.328;7.610;2023-03-31T09:25:38;11.00;53.70
10294;DHT22;5192;50.328;7.610;2023-03-31T09:28:36;11.00;58.70
10294;DHT22;5192;50.328;7.610;2023-03-31T09:31:18;10.90;59.30
10294;DHT22;5192;50.328;7.610;2023-03-31T09:33:47;10.60;64.10
10294;DHT22;5192;50.328;7.610;2023-03-31T09:36:18;10.40;58.00
10294;DHT22;5192;50.328;7.610;2023-03-31T09:38:48;10.40;60.50
10294;DHT22;5192;50.328;7.610;2023-03-31T09:41:16;10.30;62.00
10294;DHT22;5192;50.328;7.610;2023-03-31T09:43:48;10.40;61.50
10294;DHT22;5192;50.328;7.610;2023-03-31T09:46:30;10.30;62.70
10294;DHT22;5192;50.328;7.610;2023-03-31T09:49:22;10.20;56.40
10294;DHT22;5192;50.328;7.610;2023-03-31T09:52:21;10.20;52.80
10294;DHT22;5192;50.328;7.610;2023-03-31T09:54:50;10.20;49.90
10294;DHT22;5192;50.328;7.610;2023-03-31T09:57:35;10.30;53.10
10294;DHT22;5192;50.328;7.610;2023-03-31T10:00:22;10.40;54.70
10294;DHT22;5192;50.328;7.610;2023-03-31T10:03:06;10.40;55.50
10294;DHT22;5192;50.328;7.610;2023-03-31T10:05:38;10.40;57.90
10294;DHT22;5192;50.328;7.610;2023-03-31T10:08:20;10.40;60.70
10294;DHT22;5192;50.328;7.610;2023-03-31T10:14:09;10.40;55.30
10294;DHT22;5192;50.328;7.610;2023-03-31T10:16:53;10.50;61.60
10294;DHT22;5192;50.328;7.610;2023-03-31T10:19:36;10.50;63.20
10294;DHT22;5192;50.328;7.610;2023-03-31T10:25:03;10.30;69.00
10294;DHT22;5192;50.328;7.610;2023-03-31T10:27:33;10.20;69.60
10294;DHT22;5192;50.328;7.610;2023-03-31T10:30:03;10.20;68.90
10294;DHT22;5192;50.328;7.610;2023-03-31T10:32:48;10.40;71.00
10294;DHT22;5192;50.328;7.610;2023-03-31T10:35:32;10.80;61.60
10294;DHT22;5192;50.328;7.610;2023-03-31T10:38:13;11.10;64.90
10294;DHT22;5192;50.328;7.610;2023-03-31T10:40:54;11.40;58.40
10294;DHT22;5192;50.328;7.610;2023-03-31T10:46:01;11.70;52.60
10294;DHT22;5192;50.328;7.610;2023-03-31T10:48:48;11.70;48.50
10294;DHT22;5192;50.328;7.610;2023-03-31T10:51:29;11.70;56.80
10294;DHT22;5192;50.328;7.610;2023-03-31T10:54:01;11.60;51.80
10294;DHT22;5192;50.328;7.610;2023-03-31T10:57:05;11.60;47.70
10294;DHT22;5192;50.328;7.610;2023-03-31T11:06:24;11.20;59.00
10294;DHT22;5192;50.328;7.610;2023-03-31T11:09:00;10.80;57.10
10294;DHT22;5192;50.328;7.610;2023-03-31T11:17:18;9.80;53.70
10294;DHT22;5192;50.328;7.610;2023-03-31T11:25:29;9.80;42.80
10294;DHT22;5192;50.328;7.610;2023-03-31T11:37:09;10.40;52.00
10294;DHT22;5192;50.328;7.610;2023-03-31T11:43:04;11.30;46.60
10294;DHT22;5192;50.328;7.610;2023-03-31T11:49:00;11.70;28.80
10294;DHT22;5192;50.328;7.610;2023-03-31T11:57:49;11.60;44.80
10294;DHT22;5192;50.328;7.610;2023-03-31T12:00:46;11.50;41.90
10294;DHT22;5192;50.328;7.610;2023-03-31T12:03:19;11.60;40.30
10294;DHT22;5192;50.328;7.610;2023-03-31T12:05:52;11.70;46.70
10294;DHT22;5192;50.328;7.610;2023-03-31T12:09:03;11.80;50.40
10294;DHT22;5192;50.328;7.610;2023-03-31T12:12:04;11.70;50.50
10294;DHT22;5192;50.328;7.610;2023-03-31T12:17:35;11.70;39.70
10294;DHT22;5192;50.328;7.610;2023-03-31T12:20:05;11.80;44.90
10294;DHT22;5192;50.328;7.610;2023-03-31T12:22:55;12.00;47.60
10294;DHT22;5192;50.328;7.610;2023-03-31T12:25:22;12.20;58.60
10294;DHT22;5192;50.328;7.610;2023-03-31T12:27:55;12.40;51.20
10294;DHT22;5192;50.328;7.610;2023-03-31T12:30:43;12.80;56.20
10294;DHT22;5192;50.328;7.610;2023-03-31T12:33:18;13.10;51.80
10294;DHT22;5192;50.328;7.610;2023-03-31T12:36:19;13.20;32.40
10294;DHT22;5192;50.328;7.610;2023-03-31T12:42:30;14.00;34.40
10294;DHT22;5192;50.328;7.610;2023-03-31T12:45:35;14.10;26.10
10294;DHT22;5192;50.328;7.610;2023-03-31T12:51:36;14.40;29.30
10294;DHT22;5192;50.328;7.610;2023-03-31T12:57:28;14.50;20.50
10294;DHT22;5192;50.328;7.610;2023-03-31T13:06:02;14.80;21.60
10294;DHT22;5192;50.328;7.610;2023-03-31T13:08:57;14.50;11.90
10294;DHT22;5192;50.328;7.610;2023-03-31T13:11:46;14.70;14.00
10294;DHT22;5192;50.328;7.610;2023-03-31T13:14:21;14.70;11.80
10294;DHT22;5192;50.328;7.610;2023-03-31T13:19:53;15.30;7.00
10294;DHT22;5192;50.328;7.610;2023-03-31T13:22:39;15.60;1.00
10294;DHT22;5192;50.328;7.610;2023-03-31T13:25:49;15.50;1.00
10294;DHT22;5192;50.328;7.610;2023-03-31T13:28:25;15.40;1.00
10294;DHT22;5192;50.328;7.610;2023-03-31T13:31:02;15.60;1.00
10294;DHT22;5192;50.328;7.610;2023-03-31T13:33:55;15.50;1.00
10294;DHT22;5192;50.328;7.610;2023-03-31T13:39:47;15.00;1.00
10294;DHT22;5192;50.328;7.610;2023-03-31T13:54:28;15.90;1.00
10294;DHT22;5192;50.328;7.610;2023-03-31T14:03:21;16.90;1.00
10294;DHT22;5192;50.328;7.610;2023-03-31T14:06:23;16.40;1.00
10294;DHT22;5192;50.328;7.610;2023-03-31T14:11:36;15.60;1.00
10294;DHT22;5192;50.328;7.610;2023-03-31T14:14:16;15.60;1.00
10294;DHT22;5192;50.328;7.610;2023-03-31T14:17:02;15.80;1.00
10294;DHT22;5192;50.328;7.610;2023-03-31T14:19:57;15.10;1.00
10294;DHT22;5192;50.328;7.610;2023-03-31T14:22:47;14.90;1.00
10294;DHT22;5192;50.328;7.610;2023-03-31T14:37:15;12.20;25.70
10294;DHT22;5192;50.328;7.610;2023-03-31T14:39:50;12.20;20.10
10294;DHT22;5192;50.328;7.610;2023-03-31T14:42:21;12.20;18.10
10294;DHT22;5192;50.328;7.610;2023-03-31T14:44:55;12.40;17.20
10294;DHT22;5192;50.328;7.610;2023-03-31T14:47:24;12.50;18.50
10294;DHT22;5192;50.328;7.610;2023-03-31T14:50:16;12.50;16.80
10294;DHT22;5192;50.328;7.610;2023-03-31T14:52:51;12.70;16.30
10294;DHT22;5192;50.328;7.610;2023-03-31T14:55:21;12.80;16.70
10294;DHT22;5192;50.328;7.610;2023-03-31T14:57:50;12.80;13.40
10294;DHT22;5192;50.328;7.610;2023-03-31T15:00:33;13.00;15.30
10294;DHT22;5192;50.328;7.610;2023-03-31T15:03:07;12.80;15.30
10294;DHT22;5192;50.328;7.610;2023-03-31T15:05:43;12.80;14.10
10294;DHT22;5192;50.328;7.610;2023-03-31T15:08:26;12.80;12.80
10294;DHT22;5192;50.328;7.610;2023-03-31T15:10:58;12.90;12.10
10294;DHT22;5192;50.328;7.610;2023-03-31T15:16:48;12.90;12.50
10294;DHT22;5192;50.328;7.610;2023-03-31T15:19:20;12.80;11.50
10294;DHT22;5192;50.328;7.610;2023-03-31T15:21:58;12.80;9.30
10294;DHT22;5192;50.328;7.610;2023-03-31T15:24:30;12.60;8.90
10294;DHT22;5192;50.328;7.610;2023-03-31T15:29:54;12.50;11.90
10294;DHT22;5192;50.328;7.610;2023-03-31T15:32:43;12.60;11.00
10294;DHT22;5192;50.328;7.610;2023-03-31T15:37:55;12.60;14.50
10294;DHT22;5192;50.328;7.610;2023-03-31T15:40:38;12.60;14.90
10294;DHT22;5192;50.328;7.610;2023-03-31T15:43:18;12.50;14.90
10294;DHT22;5192;50.328;7.610;2023-03-31T15:48:49;12.50;13.60
10294;DHT22;5192;50.328;7.610;2023-03-31T15:51:37;12.50;14.30
10294;DHT22;5192;50.328;7.610;2023-03-31T15:54:34;12.50;14.80
10294;DHT22;5192;50.328;7.610;2023-03-31T15:57:06;12.50;10.00
10294;DHT22;5192;50.328;7.610;2023-03-31T15:59:51;12.40;8.00
10294;DHT22;5192;50.328;7.610;2023-03-31T16:02:42;12.50;8.20
10294;DHT22;5192;50.328;7.610;2023-03-31T16:05:38;12.50;7.70
10294;DHT22;5192;50.328;7.610;2023-03-31T16:08:29;12.50;8.90
10294;DHT22;5192;50.328;7.610;2023-03-31T16:11:04;12.60;7.40
10294;DHT22;5192;50.328;7.610;2023-03-31T16:13:39;12.60;8.30
10294;DHT22;5192;50.328;7.610;2023-03-31T16:16:15;12.60;3.90
10294;DHT22;5192;50.328;7.610;2023-03-31T16:18:45;12.50;5.00
10294;DHT22;5192;50.328;7.610;2023-03-31T16:21:24;12.50;5.40
10294;DHT22;5192;50.328;7.610;2023-03-31T16:23:56;12.60;4.10
10294;DHT22;5192;50.328;7.610;2023-03-31T16:26:23;12.60;4.50
10294;DHT22;5192;50.328;7.610;2023-03-31T16:28:54;12.50;1.90
10294;DHT22;5192;50.328;7.610;2023-03-31T16:31:40;12.60;3.00
10294;DHT22;5192;50.328;7.610;2023-03-31T16:34:12;12.60;2.30
10294;DHT22;5192;50.328;7.610;2023-03-31T16:36:40;12.60;1.70
10294;DHT22;5192;50.328;7.610;2023-03-31T16:39:09;12.60;1.70
10294;DHT22;5192;50.328;7.610;2023-03-31T16:41:35;12.70;1.00
10294;DHT22;5192;50.328;7.610;2023-03-31T16:44:04;12.80;1.00
10294;DHT22;5192;50.328;7.610;2023-03-31T16:46:32;12.80;1.20
10294;DHT22;5192;50.328;7.610;2023-03-31T16:49:02;12.90;1.50
10294;DHT22;5192;50.328;7.610;2023-03-31T16:51:29;12.90;1.00
10294;DHT22;5192;50.328;7.610;2023-03-31T16:53:57;13.10;1.00
10294;DHT22;5192;50.328;7.610;2023-03-31T16:56:26;13.00;1.00
10294;DHT22;5192;50.328;7.610;2023-03-31T16:58:54;12.90;1.60
10294;DHT22;5192;50.328;7.610;2023-03-31T17:01:25;12.90;2.50
10294;DHT22;5192;50.328;7.610;2023-03-31T17:03:51;12.90;1.00
10294;DHT22;5192;50.328;7.610;2023-03-31T17:06:20;12.70;5.10
10294;DHT22;5192;50.328;7.610;2023-03-31T17:08:47;12.60;4.80
10294;DHT22;5192;50.328;7.610;2023-03-31T17:11:13;12.50;8.30
10294;DHT22;5192;50.328;7.610;2023-03-31T17:13:40;12.40;8.80
10294;DHT22;5192;50.328;7.610;2023-03-31T17:16:08;12.40;9.60
10294;DHT22;5192;50.328;7.610;2023-03-31T17:18:35;12.40;11.40
10294;DHT22;5192;50.328;7.610;2023-03-31T17:21:08;12.30;13.20
10294;DHT22;5192;50.328;7.610;2023-03-31T17:23:37;12.20;14.10
10294;DHT22;5192;50.328;7.610;2023-03-31T17:26:05;12.20;16.60
10294;DHT22;5192;50.328;7.610;2023-03-31T17:28:34;12.20;15.10
10294;DHT22;5192;50.328;7.610;2023-03-31T17:31:13;12.10;15.90
10294;DHT22;5192;50.328;7.610;2023-03-31T17:33:41;12.00;15.20
10294;DHT22;5192;50.328;7.610;2023-03-31T17:36:10;12.00;15.10
10294;DHT22;5192;50.328;7.610;2023-03-31T17:38:38;12.00;12.80
10294;DHT22;5192;50.328;7.610;2023-03-31T17:41:07;12.00;13.30
10294;DHT22;5192;50.328;7.610;2023-03-31T17:43:33;12.00;11.80
10294;DHT22;5192;50.328;7.610;2023-03-31T17:46:06;12.00;12.00
10294;DHT22;5192;50.328;7.610;2023-03-31T17:48:33;11.90;13.30
10294;DHT22;5192;50.328;7.610;2023-03-31T17:51:14;11.90;12.60
10294;DHT22;5192;50.328;7.610;2023-03-31T17:53:51;11.90;10.80
10294;DHT22;5192;50.328;7.610;2023-03-31T17:56:19;11.90;12.20
10294;DHT22;5192;50.328;7.610;2023-03-31T17:58:46;11.90;14.50
10294;DHT22;5192;50.328;7.610;2023-03-31T18:01:14;11.70;12.50
10294;DHT22;5192;50.328;7.610;2023-03-31T18:03:40;11.70;13.10
10294;DHT22;5192;50.328;7.610;2023-03-31T18:06:10;11.70;14.50
10294;DHT22;5192;50.328;7.610;2023-03-31T18:08:37;11.60;14.50
10294;DHT22;5192;50.328;7.610;2023-03-31T18:11:08;11.60;14.50
10294;DHT22;5192;50.328;7.610;2023-03-31T18:13:37;11.60;16.10
10294;DHT22;5192;50.328;7.610;2023-03-31T18:16:09;11.50;15.20
10294;DHT22;5192;50.328;7.610;2023-03-31T18:18:39;11.50;16.20
10294;DHT22;5192;50.328;7.610;2023-03-31T18:21:09;11.50;16.60
10294;DHT22;5192;50.328;7.610;2023-03-31T18:23:36;11.50;16.70
10294;DHT22;5192;50.328;7.610;2023-03-31T18:26:08;11.50;17.30
10294;DHT22;5192;50.328;7.610;2023-03-31T18:28:36;11.40;17.40
10294;DHT22;5192;50.328;7.610;2023-03-31T18:31:06;11.40;18.30
10294;DHT22;5192;50.328;7.610;2023-03-31T18:33:32;11.40;19.90
10294;DHT22;5192;50.328;7.610;2023-03-31T18:36:01;11.30;23.60
10294;DHT22;5192;50.328;7.610;2023-03-31T18:38:29;11.30;30.40
10294;DHT22;5192;50.328;7.610;2023-03-31T18:40:56;11.20;32.50
10294;DHT22;5192;50.328;7.610;2023-03-31T18:43:28;11.10;31.00
10294;DHT22;5192;50.328;7.610;2023-03-31T18:45:55;11.00;31.90
10294;DHT22;5192;50.328;7.610;2023-03-31T18:48:24;11.00;34.30
10294;DHT22;5192;50.328;7.610;2023-03-31T18:50:52;10.90;35.00
10294;DHT22;5192;50.328;7.610;2023-03-31T18:53:19;10.90;34.90
10294;DHT22;5192;50.328;7.610;2023-03-31T18:55:54;10.90;34.80
10294;DHT22;5192;50.328;7.610;2023-03-31T18:58:22;10.90;35.10
10294;DHT22;5192;50.328;7.610;2023-03-31T19:00:49;10.90;36.90
10294;DHT22;5192;50.328;7.610;2023-03-31T19:03:17;10.90;39.30
10294;DHT22;5192;50.328;7.610;2023-03-31T19:05:44;10.80;40.50
10294;DHT22;5192;50.328;7.610;2023-03-31T19:08:11;10.80;42.80
10294;DHT22;5192;50.328;7.610;2023-03-31T19:10:38;10.80;46.10
10294;DHT22;5192;50.328;7.610;2023-03-31T19:13:07;10.70;47.30
10294;DHT22;5192;50.328;7.610;2023-03-31T19:15:34;10.70;48.60
10294;DHT22;5192;50.328;7.610;2023-03-31T19:18:05;10.60;53.10
10294;DHT22;5192;50.328;7.610;2023-03-31T19:20:32;10.60;58.30
10294;DHT22;5192;50.328;7.610;2023-03-31T19:22:59;10.50;62.00
10294;DHT22;5192;50.328;7.610;2023-03-31T19:25:26;10.40;64.80
10294;DHT22;5192;50.328;7.610;2023-03-31T19:27:53;10.30;67.00
10294;DHT22;5192;50.328;7.610;2023-03-31T19:30:22;10.20;68.40
10294;DHT22;5192;50.328;7.610;2023-03-31T19:32:54;10.10;70.10